sensor_id;sensor_type;location;lat;lon;timestamp;P1;durP1;ratioP1;P2;durP2;ratioP2
5977;SDS011;3015;51.390;12.256;2023-01-20T00:01:25;16.95;;;12.10;;
5977;SDS011;3015;51.390;12.256;2023-01-20T00:03:52;14.95;;;11.93;;
5977;SDS011;3015;51.390;12.256;2023-01-20T00:06:19;15.13;;;12.07;;
5977;SDS011;3015;51.390;12.256;2023-01-20T00:08:49;14.68;;;11.48;;
5977;SDS011;3015;51.390;12.256;2023-01-20T00:11:16;15.60;;;12.45;;
5977;SDS011;3015;51.390;12.256;2023-01-20T00:13:41;18.40;;;13.40;;
5977;SDS011;3015;51.390;12.256;2023-01-20T00:16:08;17.50;;;11.90;;
5977;SDS011;3015;51.390;12.256;2023-01-20T00:18:34;15.00;;;11.05;;
5977;SDS011;3015;51.390;12.256;2023-01-20T00:21:04;14.68;;;12.50;;
5977;SDS011;3015;51.390;12.256;2023-01-20T00:23:31;12.50;;;11.20;;
5977;SDS011;3015;51.390;12.256;2023-01-20T00:25:57;16.25;;;11.70;;
5977;SDS011;3015;51.390;12.256;2023-01-20T00:28:22;15.23;;;12.33;;
5977;SDS011;3015;51.390;12.256;2023-01-20T00:30:48;12.07;;;10.87;;
5977;SDS011;3015;51.390;12.256;2023-01-20T00:33:13;14.90;;;10.90;;
5977;SDS011;3015;51.390;12.256;2023-01-20T00:35:39;13.33;;;11.03;;
5977;SDS011;3015;51.390;12.256;2023-01-20T00:38:05;12.30;;;10.07;;
5977;SDS011;3015;51.390;12.256;2023-01-20T00:40:30;14.00;;;11.23;;
5977;SDS011;3015;51.390;12.256;2023-01-20T00:42:56;17.67;;;11.77;;
5977;SDS011;3015;51.390;12.256;2023-01-20T00:45:21;13.60;;;11.40;;
5977;SDS011;3015;51.390;12.256;2023-01-20T00:47:47;17.40;;;12.27;;
5977;SDS011;3015;51.390;12.256;2023-01-20T00:50:12;14.10;;;11.50;;
5977;SDS011;3015;51.390;12.256;2023-01-20T00:52:38;16.50;;;11.60;;
5977;SDS011;3015;51.390;12.256;2023-01-20T00:55:04;17.13;;;11.27;;
5977;SDS011;3015;51.390;12.256;2023-01-20T00:57:30;14.95;;;11.35;;
5977;SDS011;3015;51.390;12.256;2023-01-20T00:59:55;14.87;;;11.40;;
5977;SDS011;3015;51.390;12.256;2023-01-20T01:02:21;15.93;;;11.50;;
5977;SDS011;3015;51.390;12.256;2023-01-20T01:04:50;13.33;;;11.33;;
5977;SDS011;3015;51.390;12.256;2023-01-20T01:07:16;18.45;;;13.10;;
5977;SDS011;3015;51.390;12.256;2023-01-20T01:09:42;19.75;;;12.73;;
5977;SDS011;3015;51.390;12.256;2023-01-20T01:12:08;14.87;;;12.10;;
5977;SDS011;3015;51.390;12.256;2023-01-20T01:14:33;15.40;;;11.53;;
5977;SDS011;3015;51.390;12.256;2023-01-20T01:16:59;16.40;;;11.70;;
5977;SDS011;3015;51.390;12.256;2023-01-20T01:19:25;13.03;;;11.43;;
5977;SDS011;3015;51.390;12.256;2023-01-20T01:21:50;15.93;;;11.00;;
5977;SDS011;3015;51.390;12.256;2023-01-20T01:24:16;15.77;;;12.10;;
5977;SDS011;3015;51.390;12.256;2023-01-20T01:26:41;13.70;;;10.93;;
5977;SDS011;3015;51.390;12.256;2023-01-20T01:29:07;14.70;;;11.47;;
5977;SDS011;3015;51.390;12.256;2023-01-20T01:31:32;14.40;;;10.60;;
5977;SDS011;3015;51.390;12.256;2023-01-20T01:33:58;14.07;;;11.17;;
5977;SDS011;3015;51.390;12.256;2023-01-20T01:36:24;15.50;;;11.90;;
5977;SDS011;3015;51.390;12.256;2023-01-20T01:38:49;14.27;;;11.07;;
5977;SDS011;3015;51.390;12.256;2023-01-20T01:41:15;12.20;;;10.87;;
5977;SDS011;3015;51.390;12.256;2023-01-20T01:46:28;17.60;;;11.90;;
5977;SDS011;3015;51.390;12.256;2023-01-20T01:48:53;16.53;;;11.40;;
5977;SDS011;3015;51.390;12.256;2023-01-20T01:51:24;13.65;;;11.43;;
5977;SDS011;3015;51.390;12.256;2023-01-20T01:53:56;14.98;;;11.32;;
5977;SDS011;3015;51.390;12.256;2023-01-20T01:56:27;16.08;;;11.18;;
5977;SDS011;3015;51.390;12.256;2023-01-20T01:58:55;13.82;;;10.05;;
5977;SDS011;3015;51.390;12.256;2023-01-20T02:01:24;14.20;;;11.20;;
5977;SDS011;3015;51.390;12.256;2023-01-20T02:03:53;16.60;;;12.07;;
5977;SDS011;3015;51.390;12.256;2023-01-20T02:06:24;13.82;;;10.88;;
5977;SDS011;3015;51.390;12.256;2023-01-20T02:08:53;14.38;;;11.00;;
5977;SDS011;3015;51.390;12.256;2023-01-20T02:11:19;12.80;;;11.20;;
5977;SDS011;3015;51.390;12.256;2023-01-20T02:13:45;16.90;;;11.77;;
5977;SDS011;3015;51.390;12.256;2023-01-20T02:16:17;12.97;;;11.40;;
5977;SDS011;3015;51.390;12.256;2023-01-20T02:18:59;15.18;;;11.70;;
5977;SDS011;3015;51.390;12.256;2023-01-20T02:27:13;17.08;;;12.60;;
5977;SDS011;3015;51.390;12.256;2023-01-20T02:30:27;15.93;;;11.65;;
5977;SDS011;3015;51.390;12.256;2023-01-20T02:33:11;11.88;;;10.65;;
5977;SDS011;3015;51.390;12.256;2023-01-20T02:35:42;18.13;;;13.75;;
5977;SDS011;3015;51.390;12.256;2023-01-20T02:38:20;21.25;;;11.30;;
5977;SDS011;3015;51.390;12.256;2023-01-20T02:41:12;13.77;;;12.05;;
5977;SDS011;3015;51.390;12.256;2023-01-20T02:46:47;19.65;;;11.60;;
5977;SDS011;3015;51.390;12.256;2023-01-20T02:49:23;18.25;;;12.35;;
5977;SDS011;3015;51.390;12.256;2023-01-20T02:51:55;13.57;;;11.40;;
5977;SDS011;3015;51.390;12.256;2023-01-20T02:54:26;13.02;;;10.70;;
5977;SDS011;3015;51.390;12.256;2023-01-20T02:56:55;15.60;;;12.65;;
5977;SDS011;3015;51.390;12.256;2023-01-20T02:59:25;16.73;;;11.77;;
5977;SDS011;3015;51.390;12.256;2023-01-20T03:02:15;21.23;;;13.88;;
5977;SDS011;3015;51.390;12.256;2023-01-20T03:04:46;16.40;;;12.38;;
5977;SDS011;3015;51.390;12.256;2023-01-20T03:07:16;15.90;;;12.25;;
5977;SDS011;3015;51.390;12.256;2023-01-20T03:09:46;20.13;;;13.88;;
5977;SDS011;3015;51.390;12.256;2023-01-20T03:14:42;14.15;;;11.13;;
5977;SDS011;3015;51.390;12.256;2023-01-20T03:17:08;14.77;;;12.43;;
5977;SDS011;3015;51.390;12.256;2023-01-20T03:19:34;15.37;;;11.83;;
5977;SDS011;3015;51.390;12.256;2023-01-20T03:21:59;16.80;;;11.70;;
5977;SDS011;3015;51.390;12.256;2023-01-20T03:24:25;17.80;;;11.40;;
5977;SDS011;3015;51.390;12.256;2023-01-20T03:26:54;17.60;;;12.90;;
5977;SDS011;3015;51.390;12.256;2023-01-20T03:29:20;20.73;;;12.27;;
5977;SDS011;3015;51.390;12.256;2023-01-20T03:32:04;15.73;;;10.97;;
5977;SDS011;3015;51.390;12.256;2023-01-20T03:34:33;14.65;;;10.60;;
5977;SDS011;3015;51.390;12.256;2023-01-20T03:37:02;15.20;;;11.52;;
5977;SDS011;3015;51.390;12.256;2023-01-20T03:39:28;16.27;;;12.30;;
5977;SDS011;3015;51.390;12.256;2023-01-20T03:50:05;18.90;;;13.45;;
5977;SDS011;3015;51.390;12.256;2023-01-20T03:52:37;16.48;;;11.95;;
5977;SDS011;3015;51.390;12.256;2023-01-20T03:55:13;15.38;;;11.40;;
5977;SDS011;3015;51.390;12.256;2023-01-20T03:57:52;16.65;;;12.98;;
5977;SDS011;3015;51.390;12.256;2023-01-20T04:00:30;17.20;;;11.20;;
5977;SDS011;3015;51.390;12.256;2023-01-20T04:02:59;14.43;;;10.68;;
5977;SDS011;3015;51.390;12.256;2023-01-20T04:05:28;19.35;;;12.07;;
5977;SDS011;3015;51.390;12.256;2023-01-20T04:07:55;16.97;;;10.90;;
5977;SDS011;3015;51.390;12.256;2023-01-20T04:10:23;17.75;;;12.70;;
5977;SDS011;3015;51.390;12.256;2023-01-20T04:12:51;17.65;;;12.48;;
5977;SDS011;3015;51.390;12.256;2023-01-20T04:15:17;12.50;;;9.95;;
5977;SDS011;3015;51.390;12.256;2023-01-20T04:17:45;16.65;;;11.70;;
5977;SDS011;3015;51.390;12.256;2023-01-20T04:20:11;16.20;;;11.20;;
5977;SDS011;3015;51.390;12.256;2023-01-20T04:22:44;18.50;;;12.55;;
5977;SDS011;3015;51.390;12.256;2023-01-20T04:25:21;14.90;;;10.88;;
5977;SDS011;3015;51.390;12.256;2023-01-20T04:27:54;13.60;;;11.00;;
5977;SDS011;3015;51.390;12.256;2023-01-20T04:30:20;12.87;;;10.97;;
5977;SDS011;3015;51.390;12.256;2023-01-20T04:32:46;15.27;;;10.73;;
5977;SDS011;3015;51.390;12.256;2023-01-20T04:35:12;19.80;;;12.03;;
5977;SDS011;3015;51.390;12.256;2023-01-20T04:37:39;17.30;;;11.95;;
5977;SDS011;3015;51.390;12.256;2023-01-20T04:40:05;15.00;;;10.60;;
5977;SDS011;3015;51.390;12.256;2023-01-20T04:42:32;17.83;;;9.95;;
5977;SDS011;3015;51.390;12.256;2023-01-20T04:44:57;15.70;;;10.47;;
5977;SDS011;3015;51.390;12.256;2023-01-20T04:47:23;22.17;;;12.20;;
5977;SDS011;3015;51.390;12.256;2023-01-20T04:49:49;14.30;;;10.90;;
5977;SDS011;3015;51.390;12.256;2023-01-20T04:52:15;16.57;;;11.70;;
5977;SDS011;3015;51.390;12.256;2023-01-20T04:54:41;18.50;;;11.23;;
5977;SDS011;3015;51.390;12.256;2023-01-20T04:57:06;16.43;;;11.17;;
5977;SDS011;3015;51.390;12.256;2023-01-20T04:59:32;19.20;;;12.23;;
5977;SDS011;3015;51.390;12.256;2023-01-20T05:01:58;13.67;;;11.00;;
5977;SDS011;3015;51.390;12.256;2023-01-20T05:04:23;14.30;;;10.03;;
5977;SDS011;3015;51.390;12.256;2023-01-20T05:06:49;14.03;;;10.83;;
5977;SDS011;3015;51.390;12.256;2023-01-20T05:09:15;15.37;;;11.70;;
5977;SDS011;3015;51.390;12.256;2023-01-20T05:11:41;11.65;;;9.15;;
5977;SDS011;3015;51.390;12.256;2023-01-20T05:14:08;12.50;;;11.30;;
5977;SDS011;3015;51.390;12.256;2023-01-20T05:16:34;14.02;;;11.02;;
5977;SDS011;3015;51.390;12.256;2023-01-20T05:19:00;15.60;;;11.47;;
5977;SDS011;3015;51.390;12.256;2023-01-20T05:21:26;26.67;;;13.00;;
5977;SDS011;3015;51.390;12.256;2023-01-20T05:23:54;17.33;;;13.43;;
5977;SDS011;3015;51.390;12.256;2023-01-20T05:26:24;13.70;;;11.82;;
5977;SDS011;3015;51.390;12.256;2023-01-20T05:28:50;20.17;;;11.85;;
5977;SDS011;3015;51.390;12.256;2023-01-20T05:31:16;15.00;;;11.48;;
5977;SDS011;3015;51.390;12.256;2023-01-20T05:33:42;13.30;;;9.77;;
5977;SDS011;3015;51.390;12.256;2023-01-20T05:36:09;15.25;;;10.65;;
5977;SDS011;3015;51.390;12.256;2023-01-20T05:38:35;12.95;;;11.48;;
5977;SDS011;3015;51.390;12.256;2023-01-20T05:41:02;15.85;;;12.07;;
5977;SDS011;3015;51.390;12.256;2023-01-20T05:43:29;13.38;;;11.50;;
5977;SDS011;3015;51.390;12.256;2023-01-20T05:45:55;13.23;;;10.43;;
5977;SDS011;3015;51.390;12.256;2023-01-20T05:48:21;19.23;;;12.90;;
5977;SDS011;3015;51.390;12.256;2023-01-20T05:50:46;17.30;;;11.83;;
5977;SDS011;3015;51.390;12.256;2023-01-20T05:53:13;14.03;;;11.80;;
5977;SDS011;3015;51.390;12.256;2023-01-20T05:55:38;11.70;;;9.90;;
5977;SDS011;3015;51.390;12.256;2023-01-20T05:58:04;13.93;;;10.70;;
5977;SDS011;3015;51.390;12.256;2023-01-20T06:00:30;16.55;;;11.30;;
5977;SDS011;3015;51.390;12.256;2023-01-20T06:02:56;17.98;;;12.10;;
5977;SDS011;3015;51.390;12.256;2023-01-20T06:05:22;16.33;;;10.77;;
5977;SDS011;3015;51.390;12.256;2023-01-20T06:07:48;20.83;;;12.73;;
5977;SDS011;3015;51.390;12.256;2023-01-20T06:10:14;15.90;;;11.00;;
5977;SDS011;3015;51.390;12.256;2023-01-20T06:12:41;16.75;;;11.32;;
5977;SDS011;3015;51.390;12.256;2023-01-20T06:15:07;14.48;;;12.05;;
5977;SDS011;3015;51.390;12.256;2023-01-20T06:17:33;18.80;;;11.07;;
5977;SDS011;3015;51.390;12.256;2023-01-20T06:19:59;16.85;;;10.65;;
5977;SDS011;3015;51.390;12.256;2023-01-20T06:22:25;14.20;;;11.60;;
5977;SDS011;3015;51.390;12.256;2023-01-20T06:24:51;15.18;;;11.50;;
5977;SDS011;3015;51.390;12.256;2023-01-20T06:27:17;15.43;;;12.47;;
5977;SDS011;3015;51.390;12.256;2023-01-20T06:29:43;16.23;;;12.15;;
5977;SDS011;3015;51.390;12.256;2023-01-20T06:32:09;17.93;;;12.73;;
5977;SDS011;3015;51.390;12.256;2023-01-20T06:34:35;18.40;;;12.67;;
5977;SDS011;3015;51.390;12.256;2023-01-20T06:37:00;20.70;;;13.63;;
5977;SDS011;3015;51.390;12.256;2023-01-20T06:39:27;19.20;;;12.35;;
5977;SDS011;3015;51.390;12.256;2023-01-20T06:41:55;14.73;;;11.27;;
5977;SDS011;3015;51.390;12.256;2023-01-20T06:44:22;20.35;;;12.27;;
5977;SDS011;3015;51.390;12.256;2023-01-20T06:46:48;17.23;;;12.80;;
5977;SDS011;3015;51.390;12.256;2023-01-20T06:49:14;16.90;;;12.27;;
5977;SDS011;3015;51.390;12.256;2023-01-20T06:51:39;14.17;;;10.97;;
5977;SDS011;3015;51.390;12.256;2023-01-20T06:54:05;17.80;;;12.13;;
5977;SDS011;3015;51.390;12.256;2023-01-20T06:56:31;15.57;;;12.10;;
5977;SDS011;3015;51.390;12.256;2023-01-20T06:58:57;13.43;;;10.93;;
5977;SDS011;3015;51.390;12.256;2023-01-20T07:01:23;17.30;;;12.60;;
5977;SDS011;3015;51.390;12.256;2023-01-20T07:03:51;15.80;;;11.90;;
5977;SDS011;3015;51.390;12.256;2023-01-20T07:06:27;17.60;;;11.73;;
5977;SDS011;3015;51.390;12.256;2023-01-20T07:08:55;20.50;;;13.50;;
5977;SDS011;3015;51.390;12.256;2023-01-20T07:11:21;19.00;;;13.25;;
5977;SDS011;3015;51.390;12.256;2023-01-20T07:13:47;17.17;;;12.90;;
5977;SDS011;3015;51.390;12.256;2023-01-20T07:16:13;17.23;;;12.73;;
5977;SDS011;3015;51.390;12.256;2023-01-20T07:18:39;19.23;;;13.30;;
5977;SDS011;3015;51.390;12.256;2023-01-20T07:21:05;17.47;;;13.23;;
5977;SDS011;3015;51.390;12.256;2023-01-20T07:23:31;21.13;;;15.82;;
5977;SDS011;3015;51.390;12.256;2023-01-20T07:25:58;16.60;;;14.40;;
5977;SDS011;3015;51.390;12.256;2023-01-20T07:28:29;15.82;;;13.60;;
5977;SDS011;3015;51.390;12.256;2023-01-20T07:30:55;17.45;;;15.15;;
5977;SDS011;3015;51.390;12.256;2023-01-20T07:33:20;19.10;;;13.93;;
5977;SDS011;3015;51.390;12.256;2023-01-20T07:35:49;19.43;;;14.00;;
5977;SDS011;3015;51.390;12.256;2023-01-20T07:38:17;19.85;;;14.00;;
5977;SDS011;3015;51.390;12.256;2023-01-20T07:40:42;18.00;;;13.33;;
5977;SDS011;3015;51.390;12.256;2023-01-20T07:43:08;17.40;;;13.53;;
5977;SDS011;3015;51.390;12.256;2023-01-20T07:45:34;20.60;;;15.00;;
5977;SDS011;3015;51.390;12.256;2023-01-20T07:48:00;19.47;;;14.40;;
5977;SDS011;3015;51.390;12.256;2023-01-20T07:50:27;20.88;;;14.15;;
5977;SDS011;3015;51.390;12.256;2023-01-20T07:52:53;21.83;;;14.57;;
5977;SDS011;3015;51.390;12.256;2023-01-20T07:55:19;16.97;;;12.37;;
5977;SDS011;3015;51.390;12.256;2023-01-20T07:57:45;21.47;;;15.47;;
5977;SDS011;3015;51.390;12.256;2023-01-20T08:00:11;21.77;;;15.43;;
5977;SDS011;3015;51.390;12.256;2023-01-20T08:02:37;16.50;;;14.05;;
5977;SDS011;3015;51.390;12.256;2023-01-20T08:05:04;19.33;;;13.68;;
5977;SDS011;3015;51.390;12.256;2023-01-20T08:07:30;15.63;;;13.10;;
5977;SDS011;3015;51.390;12.256;2023-01-20T08:09:56;20.60;;;13.23;;
5977;SDS011;3015;51.390;12.256;2023-01-20T08:12:22;19.17;;;13.93;;
5977;SDS011;3015;51.390;12.256;2023-01-20T08:14:48;15.60;;;11.53;;
5977;SDS011;3015;51.390;12.256;2023-01-20T08:17:14;19.05;;;14.10;;
5977;SDS011;3015;51.390;12.256;2023-01-20T08:19:39;20.70;;;14.70;;
5977;SDS011;3015;51.390;12.256;2023-01-20T08:22:05;17.50;;;12.10;;
5977;SDS011;3015;51.390;12.256;2023-01-20T08:24:31;16.33;;;11.63;;
5977;SDS011;3015;51.390;12.256;2023-01-20T08:26:57;16.37;;;11.83;;
5977;SDS011;3015;51.390;12.256;2023-01-20T08:29:23;16.27;;;12.20;;
5977;SDS011;3015;51.390;12.256;2023-01-20T08:31:49;14.52;;;10.68;;
5977;SDS011;3015;51.390;12.256;2023-01-20T08:34:15;17.20;;;12.50;;
5977;SDS011;3015;51.390;12.256;2023-01-20T08:36:42;15.10;;;11.50;;
5977;SDS011;3015;51.390;12.256;2023-01-20T08:39:09;15.52;;;11.10;;
5977;SDS011;3015;51.390;12.256;2023-01-20T08:41:39;13.40;;;11.35;;
5977;SDS011;3015;51.390;12.256;2023-01-20T08:44:07;12.35;;;11.07;;
5977;SDS011;3015;51.390;12.256;2023-01-20T08:46:34;18.63;;;12.50;;
5977;SDS011;3015;51.390;12.256;2023-01-20T08:49:01;12.98;;;10.85;;
5977;SDS011;3015;51.390;12.256;2023-01-20T08:51:33;15.00;;;12.68;;
5977;SDS011;3015;51.390;12.256;2023-01-20T08:53:59;15.38;;;10.93;;
5977;SDS011;3015;51.390;12.256;2023-01-20T08:56:26;13.80;;;12.23;;
5977;SDS011;3015;51.390;12.256;2023-01-20T08:58:52;15.80;;;11.57;;
5977;SDS011;3015;51.390;12.256;2023-01-20T09:01:21;19.38;;;12.75;;
5977;SDS011;3015;51.390;12.256;2023-01-20T09:03:49;14.00;;;11.52;;
5977;SDS011;3015;51.390;12.256;2023-01-20T09:06:15;15.38;;;12.13;;
5977;SDS011;3015;51.390;12.256;2023-01-20T09:08:41;12.20;;;10.97;;
5977;SDS011;3015;51.390;12.256;2023-01-20T09:11:08;16.58;;;12.15;;
5977;SDS011;3015;51.390;12.256;2023-01-20T09:13:35;17.92;;;12.93;;
5977;SDS011;3015;51.390;12.256;2023-01-20T09:16:01;17.53;;;13.10;;
5977;SDS011;3015;51.390;12.256;2023-01-20T09:18:28;16.27;;;11.60;;
5977;SDS011;3015;51.390;12.256;2023-01-20T09:20:59;14.18;;;12.45;;
5977;SDS011;3015;51.390;12.256;2023-01-20T09:23:26;14.88;;;11.45;;
5977;SDS011;3015;51.390;12.256;2023-01-20T09:25:52;15.18;;;11.32;;
5977;SDS011;3015;51.390;12.256;2023-01-20T09:28:18;13.60;;;12.20;;
5977;SDS011;3015;51.390;12.256;2023-01-20T09:30:44;17.40;;;12.83;;
5977;SDS011;3015;51.390;12.256;2023-01-20T09:33:10;16.67;;;11.83;;
5977;SDS011;3015;51.390;12.256;2023-01-20T09:35:36;22.58;;;15.00;;
5977;SDS011;3015;51.390;12.256;2023-01-20T09:38:02;20.03;;;13.50;;
5977;SDS011;3015;51.390;12.256;2023-01-20T09:40:59;13.55;;;10.70;;
5977;SDS011;3015;51.390;12.256;2023-01-20T09:49:38;17.13;;;13.45;;
5977;SDS011;3015;51.390;12.256;2023-01-20T09:52:32;16.20;;;13.15;;
5977;SDS011;3015;51.390;12.256;2023-01-20T09:55:23;16.73;;;12.45;;
5977;SDS011;3015;51.390;12.256;2023-01-20T09:58:00;16.05;;;12.73;;
5977;SDS011;3015;51.390;12.256;2023-01-20T10:00:30;19.13;;;13.00;;
5977;SDS011;3015;51.390;12.256;2023-01-20T10:03:01;16.27;;;13.85;;
5977;SDS011;3015;51.390;12.256;2023-01-20T10:05:48;14.70;;;13.10;;
5977;SDS011;3015;51.390;12.256;2023-01-20T10:08:21;15.63;;;11.93;;
5977;SDS011;3015;51.390;12.256;2023-01-20T10:10:59;15.32;;;13.65;;
5977;SDS011;3015;51.390;12.256;2023-01-20T10:13:49;17.67;;;12.50;;
5977;SDS011;3015;51.390;12.256;2023-01-20T10:16:44;17.02;;;12.68;;
5977;SDS011;3015;51.390;12.256;2023-01-20T10:19:20;16.33;;;13.65;;
5977;SDS011;3015;51.390;12.256;2023-01-20T10:21:54;15.68;;;12.82;;
5977;SDS011;3015;51.390;12.256;2023-01-20T10:24:31;23.88;;;14.88;;
5977;SDS011;3015;51.390;12.256;2023-01-20T10:27:02;20.30;;;13.75;;
5977;SDS011;3015;51.390;12.256;2023-01-20T10:32:03;19.30;;;15.00;;
5977;SDS011;3015;51.390;12.256;2023-01-20T10:34:44;20.13;;;15.55;;
5977;SDS011;3015;51.390;12.256;2023-01-20T10:37:11;20.08;;;13.93;;
5977;SDS011;3015;51.390;12.256;2023-01-20T10:39:53;22.42;;;14.77;;
5977;SDS011;3015;51.390;12.256;2023-01-20T10:42:22;17.73;;;13.07;;
5977;SDS011;3015;51.390;12.256;2023-01-20T10:44:49;19.00;;;14.75;;
5977;SDS011;3015;51.390;12.256;2023-01-20T10:47:23;22.05;;;13.50;;
5977;SDS011;3015;51.390;12.256;2023-01-20T10:53:20;16.58;;;14.77;;
5977;SDS011;3015;51.390;12.256;2023-01-20T10:58:50;19.60;;;14.82;;
5977;SDS011;3015;51.390;12.256;2023-01-20T11:01:16;25.70;;;14.17;;
5977;SDS011;3015;51.390;12.256;2023-01-20T11:03:44;17.73;;;14.63;;
5977;SDS011;3015;51.390;12.256;2023-01-20T11:06:21;16.17;;;13.20;;
5977;SDS011;3015;51.390;12.256;2023-01-20T11:08:52;21.88;;;14.85;;
5977;SDS011;3015;51.390;12.256;2023-01-20T11:11:23;23.25;;;14.70;;
5977;SDS011;3015;51.390;12.256;2023-01-20T11:13:50;19.48;;;15.05;;
5977;SDS011;3015;51.390;12.256;2023-01-20T11:16:18;15.80;;;13.38;;
5977;SDS011;3015;51.390;12.256;2023-01-20T11:19:07;16.13;;;14.40;;
5977;SDS011;3015;51.390;12.256;2023-01-20T11:21:34;21.73;;;14.32;;
5977;SDS011;3015;51.390;12.256;2023-01-20T11:24:01;18.02;;;14.60;;
5977;SDS011;3015;51.390;12.256;2023-01-20T11:26:33;20.90;;;14.77;;
5977;SDS011;3015;51.390;12.256;2023-01-20T11:31:35;19.52;;;14.65;;
5977;SDS011;3015;51.390;12.256;2023-01-20T11:36:46;14.13;;;12.70;;
5977;SDS011;3015;51.390;12.256;2023-01-20T11:39:25;15.60;;;13.07;;
5977;SDS011;3015;51.390;12.256;2023-01-20T11:44:51;16.13;;;13.07;;
5977;SDS011;3015;51.390;12.256;2023-01-20T11:47:26;13.93;;;12.10;;
5977;SDS011;3015;51.390;12.256;2023-01-20T11:52:37;16.52;;;12.18;;
5977;SDS011;3015;51.390;12.256;2023-01-20T11:55:18;13.52;;;12.13;;
5977;SDS011;3015;51.390;12.256;2023-01-20T11:57:46;16.88;;;13.13;;
5977;SDS011;3015;51.390;12.256;2023-01-20T12:08:21;17.25;;;12.57;;
5977;SDS011;3015;51.390;12.256;2023-01-20T12:10:48;13.02;;;10.95;;
5977;SDS011;3015;51.390;12.256;2023-01-20T12:13:25;12.75;;;11.20;;
5977;SDS011;3015;51.390;12.256;2023-01-20T12:15:53;18.60;;;14.50;;
5977;SDS011;3015;51.390;12.256;2023-01-20T12:20:50;17.27;;;14.82;;
5977;SDS011;3015;51.390;12.256;2023-01-20T12:23:38;14.25;;;12.40;;
5977;SDS011;3015;51.390;12.256;2023-01-20T12:26:12;15.18;;;13.07;;
5977;SDS011;3015;51.390;12.256;2023-01-20T12:28:40;15.30;;;12.07;;
5977;SDS011;3015;51.390;12.256;2023-01-20T12:31:24;15.73;;;11.68;;
5977;SDS011;3015;51.390;12.256;2023-01-20T12:34:11;16.30;;;12.60;;
5977;SDS011;3015;51.390;12.256;2023-01-20T12:39:46;17.42;;;12.45;;
5977;SDS011;3015;51.390;12.256;2023-01-20T12:48:18;13.75;;;11.38;;
5977;SDS011;3015;51.390;12.256;2023-01-20T12:59:38;17.17;;;11.90;;
5977;SDS011;3015;51.390;12.256;2023-01-20T13:02:28;15.60;;;10.88;;
5977;SDS011;3015;51.390;12.256;2023-01-20T13:05:32;11.57;;;9.80;;
5977;SDS011;3015;51.390;12.256;2023-01-20T13:08:20;11.57;;;9.80;;
5977;SDS011;3015;51.390;12.256;2023-01-20T13:15:53;19.98;;;10.90;;
5977;SDS011;3015;51.390;12.256;2023-01-20T13:20:59;13.65;;;10.27;;
5977;SDS011;3015;51.390;12.256;2023-01-20T13:23:28;12.50;;;10.93;;
5977;SDS011;3015;51.390;12.256;2023-01-20T13:25:57;18.20;;;12.10;;
5977;SDS011;3015;51.390;12.256;2023-01-20T13:28:25;13.40;;;10.50;;
5977;SDS011;3015;51.390;12.256;2023-01-20T13:30:53;12.80;;;10.50;;
5977;SDS011;3015;51.390;12.256;2023-01-20T13:33:34;12.23;;;10.70;;
5977;SDS011;3015;51.390;12.256;2023-01-20T13:36:15;13.40;;;10.50;;
5977;SDS011;3015;51.390;12.256;2023-01-20T13:38:43;13.18;;;11.18;;
5977;SDS011;3015;51.390;12.256;2023-01-20T13:41:09;11.10;;;10.00;;
5977;SDS011;3015;51.390;12.256;2023-01-20T13:43:46;16.48;;;10.73;;
5977;SDS011;3015;51.390;12.256;2023-01-20T13:56:48;11.05;;;9.80;;
5977;SDS011;3015;51.390;12.256;2023-01-20T13:59:15;28.17;;;10.43;;
5977;SDS011;3015;51.390;12.256;2023-01-20T14:01:40;11.70;;;9.37;;
5977;SDS011;3015;51.390;12.256;2023-01-20T14:04:12;19.00;;;13.10;;
5977;SDS011;3015;51.390;12.256;2023-01-20T14:06:47;15.55;;;12.23;;
5977;SDS011;3015;51.390;12.256;2023-01-20T14:09:18;12.73;;;10.60;;
5977;SDS011;3015;51.390;12.256;2023-01-20T14:11:50;14.10;;;10.75;;
5977;SDS011;3015;51.390;12.256;2023-01-20T14:14:18;13.45;;;11.23;;
5977;SDS011;3015;51.390;12.256;2023-01-20T14:16:46;12.35;;;11.15;;
5977;SDS011;3015;51.390;12.256;2023-01-20T14:21:52;14.43;;;12.02;;
5977;SDS011;3015;51.390;12.256;2023-01-20T14:24:29;11.43;;;10.23;;
5977;SDS011;3015;51.390;12.256;2023-01-20T14:29:31;12.10;;;9.82;;
5977;SDS011;3015;51.390;12.256;2023-01-20T14:31:56;12.30;;;9.93;;
5977;SDS011;3015;51.390;12.256;2023-01-20T14:36:50;11.75;;;9.93;;
5977;SDS011;3015;51.390;12.256;2023-01-20T14:39:20;18.60;;;9.23;;
5977;SDS011;3015;51.390;12.256;2023-01-20T14:41:52;11.02;;;9.40;;
5977;SDS011;3015;51.390;12.256;2023-01-20T14:44:20;13.07;;;10.00;;
5977;SDS011;3015;51.390;12.256;2023-01-20T14:46:51;20.42;;;12.48;;
5977;SDS011;3015;51.390;12.256;2023-01-20T14:49:20;12.70;;;9.85;;
5977;SDS011;3015;51.390;12.256;2023-01-20T14:51:47;12.35;;;10.52;;
5977;SDS011;3015;51.390;12.256;2023-01-20T14:54:26;14.45;;;10.23;;
5977;SDS011;3015;51.390;12.256;2023-01-20T14:56:53;12.10;;;9.65;;
5977;SDS011;3015;51.390;12.256;2023-01-20T14:59:18;11.13;;;9.90;;
5977;SDS011;3015;51.390;12.256;2023-01-20T15:01:52;13.02;;;10.35;;
5977;SDS011;3015;51.390;12.256;2023-01-20T15:04:19;11.23;;;9.85;;
5977;SDS011;3015;51.390;12.256;2023-01-20T15:06:52;11.27;;;10.02;;
5977;SDS011;3015;51.390;12.256;2023-01-20T15:09:27;14.70;;;11.70;;
5977;SDS011;3015;51.390;12.256;2023-01-20T15:14:58;13.55;;;11.00;;
5977;SDS011;3015;51.390;12.256;2023-01-20T15:17:30;15.35;;;9.98;;
5977;SDS011;3015;51.390;12.256;2023-01-20T15:19:55;13.37;;;10.47;;
5977;SDS011;3015;51.390;12.256;2023-01-20T15:22:21;15.67;;;10.67;;
5977;SDS011;3015;51.390;12.256;2023-01-20T15:24:49;15.43;;;11.00;;
5977;SDS011;3015;51.390;12.256;2023-01-20T15:27:23;12.40;;;10.00;;
5977;SDS011;3015;51.390;12.256;2023-01-20T15:29:58;13.68;;;11.10;;
5977;SDS011;3015;51.390;12.256;2023-01-20T15:32:36;18.60;;;14.90;;
5977;SDS011;3015;51.390;12.256;2023-01-20T15:35:01;21.10;;;15.60;;
5977;SDS011;3015;51.390;12.256;2023-01-20T15:37:27;22.27;;;15.00;;
5977;SDS011;3015;51.390;12.256;2023-01-20T15:39:53;17.70;;;15.63;;
5977;SDS011;3015;51.390;12.256;2023-01-20T15:42:18;19.83;;;15.10;;
5977;SDS011;3015;51.390;12.256;2023-01-20T15:44:44;16.50;;;13.90;;
5977;SDS011;3015;51.390;12.256;2023-01-20T15:47:20;17.23;;;11.68;;
5977;SDS011;3015;51.390;12.256;2023-01-20T15:49:51;16.70;;;12.65;;
5977;SDS011;3015;51.390;12.256;2023-01-20T15:52:16;16.87;;;12.07;;
5977;SDS011;3015;51.390;12.256;2023-01-20T15:54:42;14.65;;;12.05;;
5977;SDS011;3015;51.390;12.256;2023-01-20T15:57:12;15.80;;;12.63;;
5977;SDS011;3015;51.390;12.256;2023-01-20T15:59:38;18.63;;;13.18;;
5977;SDS011;3015;51.390;12.256;2023-01-20T16:02:23;23.17;;;15.27;;
5977;SDS011;3015;51.390;12.256;2023-01-20T16:04:49;17.35;;;15.02;;
5977;SDS011;3015;51.390;12.256;2023-01-20T16:07:16;30.17;;;17.97;;
5977;SDS011;3015;51.390;12.256;2023-01-20T16:09:43;31.75;;;18.80;;
5977;SDS011;3015;51.390;12.256;2023-01-20T16:12:16;24.52;;;17.38;;
5977;SDS011;3015;51.390;12.256;2023-01-20T16:14:42;27.50;;;18.83;;
5977;SDS011;3015;51.390;12.256;2023-01-20T16:17:18;21.70;;;15.03;;
5977;SDS011;3015;51.390;12.256;2023-01-20T16:19:45;24.23;;;14.95;;
5977;SDS011;3015;51.390;12.256;2023-01-20T16:22:11;15.20;;;12.23;;
5977;SDS011;3015;51.390;12.256;2023-01-20T16:24:38;20.45;;;14.32;;
5977;SDS011;3015;51.390;12.256;2023-01-20T16:27:11;17.48;;;14.00;;
5977;SDS011;3015;51.390;12.256;2023-01-20T16:29:40;19.40;;;14.50;;
5977;SDS011;3015;51.390;12.256;2023-01-20T16:32:06;16.77;;;12.60;;
5977;SDS011;3015;51.390;12.256;2023-01-20T16:34:31;21.43;;;13.97;;